Time;durP1;ratioP1;P1;durP2;ratioP2;P2;SDS_P1;SDS_P2;PMS_P1;PMS_P2;Temp;Humidity;BMP_temperature;BMP_pressure;BME280_temperature;BME280_humidity;BME280_pressure;Samples;Min_cycle;Max_cycle;Signal;HPM_P1;HPM_P2
2021/12/01 00:02:03;;;;;;;60.13;47.75;;;17.40;61.90;;;;;;4951530;28;85655;-74
2021/12/01 00:04:28;;;;;;;58.88;47.88;;;17.40;61.80;;;;;;4946755;28;87469;-74
2021/12/01 00:06:54;;;;;;;58.70;47.80;;;17.40;61.80;;;;;;4956863;28;86326;-73
2021/12/01 00:09:20;;;;;;;58.60;47.85;;;17.40;61.70;;;;;;4958303;28;86293;-73
2021/12/01 00:11:45;;;;;;;58.72;47.80;;;17.40;61.80;;;;;;4961769;28;87507;-74
2021/12/01 00:14:11;;;;;;;58.97;47.70;;;17.40;61.70;;;;;;4945207;28;86347;-73
2021/12/01 00:16:36;;;;;;;59.05;47.85;;;17.30;61.80;;;;;;4952947;28;86294;-74
2021/12/01 00:19:02;;;;;;;58.63;47.80;;;17.30;61.70;;;;;;4955492;28;89434;-73
2021/12/01 00:21:28;;;;;;;58.20;47.55;;;17.40;61.90;;;;;;4951522;28;86913;-73
2021/12/01 00:23:53;;;;;;;59.10;48.15;;;17.30;61.70;;;;;;4959947;28;85912;-74
2021/12/01 00:26:19;;;;;;;58.60;47.97;;;17.30;61.80;;;;;;4958735;28;86271;-73
2021/12/01 00:28:45;;;;;;;58.53;47.95;;;17.30;61.70;;;;;;4952495;28;86391;-74
2021/12/01 00:31:11;;;;;;;58.78;48.08;;;17.30;61.80;;;;;;4954263;28;89827;-74
2021/12/01 00:33:36;;;;;;;58.17;47.78;;;17.30;61.80;;;;;;4953353;28;85947;-73
2021/12/01 00:36:02;;;;;;;58.70;47.75;;;17.30;61.90;;;;;;4946822;28;86910;-73
2021/12/01 00:38:28;;;;;;;58.58;47.63;;;17.20;61.80;;;;;;4965611;28;86127;-74
2021/12/01 00:40:55;;;;;;;57.80;47.50;;;17.20;61.80;;;;;;4959599;28;86312;-74
2021/12/01 00:43:23;;;;;;;58.42;47.70;;;17.20;62.00;;;;;;4961495;28;86720;-74
2021/12/01 00:46:00;;;;;;;57.75;47.45;;;17.20;61.90;;;;;;4960391;28;87373;-73
2021/12/01 00:48:27;;;;;;;58.25;47.65;;;17.20;62.00;;;;;;4964013;28;86613;-73
2021/12/01 00:50:54;;;;;;;58.35;47.60;;;17.20;61.90;;;;;;4965595;28;88809;-73
2021/12/01 00:53:20;;;;;;;58.70;47.80;;;17.20;61.90;;;;;;4958520;28;87450;-73
2021/12/01 00:55:46;;;;;;;58.10;47.65;;;17.20;62.00;;;;;;4961007;28;85841;-73
2021/12/01 00:58:13;;;;;;;58.15;47.55;;;17.20;62.10;;;;;;4968595;28;85041;-73
2021/12/01 01:00:40;;;;;;;58.00;47.58;;;17.10;62.00;;;;;;4961525;28;86190;-74
2021/12/01 01:03:06;;;;;;;57.95;47.67;;;17.20;62.00;;;;;;4959106;28;87213;-74
2021/12/01 01:05:32;;;;;;;57.80;47.45;;;17.20;62.00;;;;;;4961095;28;85947;-73
2021/12/01 01:07:58;;;;;;;58.33;47.75;;;17.20;62.00;;;;;;4958371;28;88015;-73
2021/12/01 01:18:34;;;;;;;57.42;47.45;;;17.10;62.20;;;;;;4971421;28;87077;-73
2021/12/01 01:21:00;;;;;;;58.85;47.60;;;17.10;62.20;;;;;;4952607;28;87005;-73
2021/12/01 01:23:29;;;;;;;58.05;47.63;;;17.00;62.10;;;;;;4958729;28;86753;-73
2021/12/01 01:25:55;;;;;;;58.03;47.63;;;17.00;62.20;;;;;;4947063;28;87542;-73
2021/12/01 01:28:21;;;;;;;58.25;47.67;;;17.00;62.30;;;;;;4950600;28;87458;-72
2021/12/01 01:30:46;;;;;;;58.35;47.65;;;17.00;62.40;;;;;;4956001;28;85916;-73
2021/12/01 01:33:12;;;;;;;57.28;47.33;;;17.00;62.30;;;;;;4956892;28;86335;-73
2021/12/01 01:35:38;;;;;;;58.65;47.65;;;17.00;62.40;;;;;;4954891;28;88393;-73
2021/12/01 01:38:03;;;;;;;57.40;47.45;;;17.00;62.50;;;;;;4956882;28;91021;-73
2021/12/01 01:40:29;;;;;;;58.78;47.70;;;17.00;62.30;;;;;;4951163;28;86142;-73
2021/12/01 01:42:55;;;;;;;58.15;47.67;;;17.00;62.40;;;;;;4964828;28;86257;-73
2021/12/01 01:45:20;;;;;;;57.95;47.63;;;17.00;62.50;;;;;;4969914;28;87238;-74
2021/12/01 01:47:49;;;;;;;57.50;47.50;;;17.00;62.40;;;;;;4956947;28;88012;-73
2021/12/01 01:50:28;;;;;;;58.47;47.88;;;17.00;62.40;;;;;;4956191;28;86492;-73
2021/12/01 01:52:53;;;;;;;58.22;47.65;;;16.90;62.50;;;;;;4952330;28;85479;-73
2021/12/01 01:55:19;;;;;;;57.53;47.42;;;16.90;62.50;;;;;;4962907;28;87021;-73
2021/12/01 01:57:45;;;;;;;57.78;47.35;;;16.90;62.60;;;;;;4956647;28;86618;-73
2021/12/01 02:00:11;;;;;;;57.50;47.45;;;16.90;62.50;;;;;;4956953;28;90873;-73
2021/12/01 02:02:37;;;;;;;57.83;47.63;;;16.90;62.40;;;;;;4952243;28;86055;-73
2021/12/01 02:05:03;;;;;;;57.88;47.55;;;16.90;62.40;;;;;;4955123;28;85568;-74
2021/12/01 02:07:29;;;;;;;57.95;47.72;;;16.90;62.40;;;;;;4962304;28;87232;-74
2021/12/01 02:09:55;;;;;;;57.25;47.30;;;16.90;62.40;;;;;;4964380;28;86332;-74
2021/12/01 02:12:21;;;;;;;57.88;47.55;;;16.90;62.60;;;;;;4960402;28;88019;-74
2021/12/01 02:14:47;;;;;;;57.53;47.40;;;16.90;62.50;;;;;;4963770;28;86392;-74
2021/12/01 02:17:12;;;;;;;57.72;47.47;;;16.90;62.70;;;;;;4960386;28;87217;-74
2021/12/01 02:19:38;;;;;;;57.95;47.58;;;16.80;62.50;;;;;;4968118;28;90482;-74
2021/12/01 02:22:04;;;;;;;57.67;47.65;;;16.90;62.70;;;;;;4957150;28;86732;-74
2021/12/01 02:24:30;;;;;;;57.63;47.50;;;16.90;62.50;;;;;;4958319;28;90568;-73
2021/12/01 02:26:56;;;;;;;58.50;47.72;;;16.90;62.50;;;;;;4959354;28;87040;-73
2021/12/01 02:29:26;;;;;;;57.92;47.55;;;16.80;62.60;;;;;;4953885;28;85789;-72
2021/12/01 02:31:54;;;;;;;57.65;47.47;;;16.90;62.50;;;;;;4956548;28;85112;-73
2021/12/01 02:34:22;;;;;;;57.78;47.33;;;16.80;62.50;;;;;;4955694;28;90315;-73
2021/12/01 02:36:57;;;;;;;57.53;47.35;;;16.80;62.50;;;;;;4956331;28;87625;-73
2021/12/01 02:39:23;;;;;;;57.50;47.30;;;16.80;62.50;;;;;;4962877;28;86903;-74
2021/12/01 02:41:54;;;;;;;57.45;47.35;;;16.80;62.50;;;;;;4948428;28;86319;-73
2021/12/01 02:44:21;;;;;;;57.40;47.53;;;16.80;62.50;;;;;;4967344;28;85779;-74
2021/12/01 02:46:46;;;;;;;57.30;47.42;;;16.80;62.70;;;;;;4951918;28;86396;-74
2021/12/01 02:49:12;;;;;;;57.58;47.55;;;16.80;62.60;;;;;;4952232;28;85577;-74
2021/12/01 02:51:38;;;;;;;57.17;47.22;;;16.80;62.50;;;;;;4949322;28;85962;-74
2021/12/01 02:54:06;;;;;;;57.60;47.67;;;16.80;62.70;;;;;;4961257;28;85563;-74
2021/12/01 02:56:33;;;;;;;57.67;47.70;;;16.70;62.60;;;;;;4968506;28;87405;-74
2021/12/01 02:59:01;;;;;;;57.65;47.45;;;16.80;62.70;;;;;;4955614;28;89192;-73
2021/12/01 03:01:27;;;;;;;57.65;47.42;;;16.70;62.70;;;;;;4958040;28;88048;-75
2021/12/01 03:03:53;;;;;;;57.28;47.35;;;16.70;62.70;;;;;;4959848;28;87883;-73
2021/12/01 03:06:21;;;;;;;58.00;47.35;;;16.80;62.60;;;;;;4958614;28;87471;-74
2021/12/01 03:08:47;;;;;;;57.55;47.50;;;16.70;62.70;;;;;;4955955;28;87676;-73
2021/12/01 03:11:14;;;;;;;57.88;47.45;;;16.70;62.70;;;;;;4957750;28;87326;-74
2021/12/01 03:13:40;;;;;;;57.70;47.65;;;16.70;62.70;;;;;;4961953;28;86600;-74
2021/12/01 03:16:06;;;;;;;57.42;47.30;;;16.70;62.70;;;;;;4959121;28;91043;-73
2021/12/01 03:18:32;;;;;;;58.10;47.47;;;16.70;62.80;;;;;;4958910;28;86054;-74
2021/12/01 03:20:59;;;;;;;57.53;47.35;;;16.70;62.80;;;;;;4958931;28;86341;-73
2021/12/01 03:23:26;;;;;;;57.40;47.35;;;16.70;62.60;;;;;;4954358;28;86315;-73
2021/12/01 03:25:52;;;;;;;57.50;47.58;;;16.70;62.80;;;;;;4958012;28;87570;-73
2021/12/01 03:28:19;;;;;;;57.08;47.15;;;16.60;62.80;;;;;;4950075;28;90578;-73
2021/12/01 03:30:45;;;;;;;57.08;47.25;;;16.60;62.90;;;;;;4952753;28;85903;-72
2021/12/01 03:33:14;;;;;;;58.00;47.42;;;16.60;62.80;;;;;;4960094;28;85636;-73
2021/12/01 03:35:42;;;;;;;57.28;47.35;;;16.60;62.90;;;;;;4959460;28;87463;-74
2021/12/01 03:38:08;;;;;;;58.10;47.40;;;16.60;62.80;;;;;;4953759;28;87546;-74
2021/12/01 03:40:34;;;;;;;57.55;47.55;;;16.60;63.00;;;;;;4966899;28;87196;-73
2021/12/01 03:42:59;;;;;;;57.03;47.35;;;16.60;63.00;;;;;;4957090;28;90355;-73
2021/12/01 03:45:25;;;;;;;58.03;47.45;;;16.60;63.00;;;;;;4969576;28;86951;-74
2021/12/01 03:47:51;;;;;;;57.15;47.22;;;16.60;62.90;;;;;;4958515;28;87083;-73
2021/12/01 03:50:17;;;;;;;57.72;47.58;;;16.60;62.80;;;;;;4960334;28;86342;-73
2021/12/01 03:52:43;;;;;;;57.15;47.42;;;16.60;63.00;;;;;;4946921;28;87530;-73
2021/12/01 03:55:10;;;;;;;56.92;47.17;;;16.60;63.00;;;;;;4950696;28;86449;-73
2021/12/01 03:57:36;;;;;;;57.38;47.45;;;16.60;62.90;;;;;;4959670;28;85044;-73
2021/12/01 04:00:06;;;;;;;57.00;47.25;;;16.60;63.00;;;;;;4948221;28;85896;-72
2021/12/01 04:02:32;;;;;;;57.10;47.22;;;16.60;63.00;;;;;;4959330;28;85803;-74
2021/12/01 04:04:58;;;;;;;57.30;47.38;;;16.50;63.00;;;;;;4960753;28;86824;-73
2021/12/01 04:07:23;;;;;;;57.50;47.38;;;16.50;63.00;;;;;;4960832;28;86822;-74
2021/12/01 04:09:50;;;;;;;57.55;47.33;;;16.50;63.00;;;;;;4959883;28;86617;-74
2021/12/01 04:12:17;;;;;;;57.25;47.35;;;16.50;63.20;;;;;;4949900;28;87901;-73
2021/12/01 04:14:42;;;;;;;57.20;47.35;;;16.50;63.00;;;;;;4956635;28;85942;-73
2021/12/01 04:17:08;;;;;;;56.80;47.17;;;16.50;62.90;;;;;;4959964;28;86089;-74
2021/12/01 04:19:34;;;;;;;57.47;47.17;;;16.50;63.00;;;;;;4954502;28;87647;-73
2021/12/01 04:21:59;;;;;;;57.25;47.05;;;16.50;63.00;;;;;;4965179;28;87357;-74
2021/12/01 04:24:25;;;;;;;57.40;47.42;;;16.50;63.00;;;;;;4946892;28;92303;-74
2021/12/01 04:26:51;;;;;;;57.67;47.58;;;16.50;63.10;;;;;;4952744;28;86348;-74
2021/12/01 04:29:17;;;;;;;56.15;46.83;;;16.50;63.00;;;;;;4952519;28;92349;-73
2021/12/01 04:31:43;;;;;;;56.33;46.83;;;16.50;63.10;;;;;;4947495;28;87661;-73
2021/12/01 04:34:08;;;;;;;56.58;47.03;;;16.50;63.00;;;;;;4955300;28;86278;-73
2021/12/01 04:36:38;;;;;;;57.08;47.15;;;16.50;63.10;;;;;;4961906;28;88022;-73
2021/12/01 04:39:06;;;;;;;56.92;47.25;;;16.50;63.20;;;;;;4965011;28;88624;-74
2021/12/01 04:41:38;;;;;;;57.08;47.10;;;16.50;63.20;;;;;;4966259;28;87439;-72
2021/12/01 04:44:09;;;;;;;57.30;47.33;;;16.50;63.10;;;;;;4957418;28;87830;-73
2021/12/01 04:46:41;;;;;;;56.63;47.13;;;16.50;63.20;;;;;;4960372;28;89221;-73
2021/12/01 04:49:08;;;;;;;56.97;47.03;;;16.50;63.10;;;;;;4955178;28;88480;-72
2021/12/01 04:51:34;;;;;;;56.78;47.15;;;16.40;63.20;;;;;;4959937;28;85763;-73
2021/12/01 04:54:02;;;;;;;57.00;47.33;;;16.40;63.10;;;;;;4957899;28;87194;-73
2021/12/01 04:56:28;;;;;;;56.75;47.10;;;16.40;63.20;;;;;;4960591;28;85826;-73
2021/12/01 04:58:53;;;;;;;56.08;46.80;;;16.40;63.30;;;;;;4958265;28;88176;-74
2021/12/01 05:01:19;;;;;;;56.30;46.95;;;16.40;63.30;;;;;;4959259;28;87096;-74
2021/12/01 05:03:45;;;;;;;56.80;47.25;;;16.40;63.40;;;;;;4967848;28;87217;-72
2021/12/01 05:06:12;;;;;;;57.65;47.25;;;16.50;63.40;;;;;;4960849;28;87575;-72
2021/12/01 05:08:39;;;;;;;56.83;47.22;;;16.60;63.40;;;;;;4943392;28;88516;-73
2021/12/01 05:11:05;;;;;;;57.45;47.38;;;16.70;63.20;;;;;;4967894;28;86002;-73
2021/12/01 05:13:31;;;;;;;57.83;47.08;;;16.80;63.10;;;;;;4966301;28;87275;-73
2021/12/01 05:15:56;;;;;;;58.05;47.55;;;17.00;62.60;;;;;;4956894;28;87495;-72
2021/12/01 05:18:22;;;;;;;57.33;47.30;;;17.20;62.40;;;;;;4972864;28;85706;-74
2021/12/01 05:20:48;;;;;;;57.33;47.25;;;17.30;61.80;;;;;;4964244;28;85099;-74
2021/12/01 05:23:15;;;;;;;57.50;47.35;;;17.50;61.30;;;;;;4943841;28;89325;-72
2021/12/01 05:25:42;;;;;;;57.17;47.28;;;17.60;61.00;;;;;;4952923;28;87043;-73
2021/12/01 05:28:07;;;;;;;57.33;47.35;;;17.80;60.80;;;;;;4954027;28;87204;-74
2021/12/01 05:30:33;;;;;;;57.97;47.38;;;17.90;60.30;;;;;;4941376;28;88893;-73
2021/12/01 05:33:05;;;;;;;57.63;47.38;;;18.00;60.20;;;;;;4948970;28;87836;-73
2021/12/01 05:35:30;;;;;;;57.60;47.33;;;18.10;59.80;;;;;;4958001;28;86327;-73
2021/12/01 05:37:57;;;;;;;58.22;47.60;;;18.20;59.60;;;;;;4957446;28;87483;-72
2021/12/01 05:40:23;;;;;;;57.90;47.30;;;18.30;59.50;;;;;;4968955;28;87028;-72
2021/12/01 05:42:48;;;;;;;57.75;47.53;;;18.30;59.30;;;;;;4959822;28;87690;-71
2021/12/01 05:45:15;;;;;;;58.15;47.58;;;18.40;59.20;;;;;;4961034;28;85991;-72
2021/12/01 05:47:40;;;;;;;58.88;47.58;;;18.50;59.00;;;;;;4968537;28;85575;-73
2021/12/01 05:50:06;;;;;;;57.90;47.55;;;18.50;58.90;;;;;;4957854;28;87751;-73
2021/12/01 05:52:32;;;;;;;58.08;47.75;;;18.60;58.90;;;;;;4964894;28;87199;-73
2021/12/01 05:54:58;;;;;;;57.78;47.53;;;18.60;58.80;;;;;;4958897;28;86321;-73
2021/12/01 05:57:23;;;;;;;58.08;47.65;;;18.60;58.60;;;;;;4961314;28;86280;-73
2021/12/01 05:59:49;;;;;;;58.25;47.65;;;18.70;58.60;;;;;;4959079;28;86792;-73
2021/12/01 06:02:15;;;;;;;59.40;47.85;;;18.70;58.50;;;;;;4962392;28;89303;-73
2021/12/01 06:04:40;;;;;;;58.47;47.85;;;18.70;58.50;;;;;;4948736;28;87013;-74
2021/12/01 06:07:06;;;;;;;58.75;47.78;;;18.70;58.70;;;;;;4953256;28;85942;-73
2021/12/01 06:09:32;;;;;;;57.78;47.42;;;18.70;58.50;;;;;;4955677;28;89297;-73
2021/12/01 06:11:57;;;;;;;58.25;47.42;;;18.70;58.50;;;;;;4948662;28;87864;-72
2021/12/01 06:14:23;;;;;;;58.60;47.63;;;18.60;58.40;;;;;;4955923;28;86016;-74
2021/12/01 06:16:49;;;;;;;57.95;47.50;;;18.70;58.40;;;;;;4954668;28;91787;-73
2021/12/01 06:19:14;;;;;;;58.38;47.53;;;18.70;58.70;;;;;;4953824;28;88193;-76
2021/12/01 06:21:40;;;;;;;59.15;47.85;;;18.60;58.60;;;;;;4948757;28;90090;-75
2021/12/01 06:24:06;;;;;;;58.42;47.60;;;18.60;58.50;;;;;;4954920;28;88324;-76
2021/12/01 06:26:32;;;;;;;63.67;48.17;;;18.60;58.70;;;;;;4954822;28;86162;-77
2021/12/01 06:28:57;;;;;;;61.80;48.25;;;18.70;59.60;;;;;;4967622;28;86579;-76
2021/12/01 06:31:23;;;;;;;62.92;48.53;;;18.60;60.00;;;;;;4940430;28;89244;-76
2021/12/01 06:33:49;;;;;;;61.70;48.47;;;18.60;60.30;;;;;;4952184;28;86708;-75
2021/12/01 06:36:14;;;;;;;70.65;48.78;;;18.60;60.40;;;;;;4950840;28;85846;-76
2021/12/01 06:38:41;;;;;;;61.45;48.35;;;18.60;60.90;;;;;;4942927;28;86011;-76
2021/12/01 06:41:08;;;;;;;65.15;48.38;;;18.60;61.10;;;;;;4932706;28;89851;-75
2021/12/01 06:43:33;;;;;;;63.33;48.80;;;18.60;61.30;;;;;;4942580;28;87294;-77
2021/12/01 06:45:59;;;;;;;61.67;48.58;;;19.00;60.50;;;;;;4946393;28;88283;-77
2021/12/01 06:48:25;;;;;;;61.63;48.38;;;19.30;59.50;;;;;;4950504;28;87720;-77
2021/12/01 06:50:51;;;;;;;60.42;48.58;;;19.20;59.40;;;;;;4964848;28;85535;-77
2021/12/01 06:53:17;;;;;;;63.30;48.65;;;19.20;59.50;;;;;;4958085;28;87079;-75
2021/12/01 06:55:42;;;;;;;62.58;49.03;;;19.20;59.90;;;;;;4956687;28;87034;-77
2021/12/01 06:58:08;;;;;;;62.92;48.35;;;19.30;59.30;;;;;;4961889;28;86744;-76
2021/12/01 07:00:34;;;;;;;66.55;48.65;;;19.30;59.30;;;;;;4961039;28;88525;-77
2021/12/01 07:03:00;;;;;;;64.85;48.80;;;19.20;59.30;;;;;;4960929;28;86607;-76
2021/12/01 07:05:26;;;;;;;63.55;48.72;;;19.30;59.30;;;;;;4950455;28;86616;-77
2021/12/01 07:07:56;;;;;;;65.07;48.70;;;19.30;59.00;;;;;;4945527;28;87428;-76
2021/12/01 07:10:45;;;;;;;61.47;48.67;;;19.30;58.80;;;;;;4945557;28;87114;-77
2021/12/01 07:13:10;;;;;;;62.65;48.90;;;19.30;58.90;;;;;;4954751;28;86837;-76
2021/12/01 07:15:36;;;;;;;61.50;48.63;;;19.30;59.00;;;;;;4944271;28;91149;-76
2021/12/01 07:18:03;;;;;;;62.88;48.90;;;19.40;59.60;;;;;;4945179;28;86250;-77
2021/12/01 07:20:29;;;;;;;63.33;48.85;;;19.80;57.90;;;;;;4937412;28;89964;-77
2021/12/01 07:22:55;;;;;;;64.65;48.85;;;20.10;57.20;;;;;;4960476;28;89093;-77
2021/12/01 07:25:21;;;;;;;65.07;48.95;;;20.50;56.00;;;;;;4954250;28;86667;-75
2021/12/01 07:27:46;;;;;;;64.68;49.10;;;20.60;55.80;;;;;;4939903;28;86724;-77
2021/12/01 07:30:12;;;;;;;65.53;49.28;;;20.80;54.90;;;;;;4943152;28;86199;-77
2021/12/01 07:32:38;;;;;;;67.55;49.35;;;21.10;54.00;;;;;;4942434;28;86708;-76
2021/12/01 07:35:04;;;;;;;66.35;49.20;;;21.20;54.00;;;;;;4942431;28;86782;-76
2021/12/01 07:37:30;;;;;;;65.05;49.72;;;21.20;53.60;;;;;;4936594;28;88176;-77
2021/12/01 07:39:56;;;;;;;65.95;49.67;;;21.40;53.60;;;;;;4936675;28;88302;-77
2021/12/01 07:42:22;;;;;;;66.40;49.95;;;21.50;53.10;;;;;;4951003;28;86954;-76
2021/12/01 07:44:48;;;;;;;66.18;49.95;;;21.50;53.10;;;;;;4946077;28;90585;-76
2021/12/01 07:47:13;;;;;;;65.75;49.78;;;21.50;52.80;;;;;;4947678;28;85999;-76
2021/12/01 07:49:40;;;;;;;65.63;49.38;;;21.50;53.20;;;;;;4939107;28;87744;-76
2021/12/01 07:52:07;;;;;;;65.93;49.85;;;21.20;54.20;;;;;;4952392;28;90644;-77
2021/12/01 07:54:33;;;;;;;65.00;49.85;;;21.10;54.30;;;;;;4951795;28;86475;-77
2021/12/01 07:56:59;;;;;;;63.88;49.70;;;20.90;54.60;;;;;;4951453;28;87940;-76
2021/12/01 07:59:25;;;;;;;64.85;49.75;;;20.80;54.60;;;;;;4957315;28;90151;-77
2021/12/01 08:01:51;;;;;;;63.85;49.63;;;20.70;54.70;;;;;;4958839;28;88680;-77
2021/12/01 08:04:16;;;;;;;64.05;49.72;;;20.70;55.00;;;;;;4954804;28;85514;-77
2021/12/01 08:06:45;;;;;;;64.20;49.40;;;20.60;55.10;;;;;;4947424;28;86184;-76
2021/12/01 08:09:11;;;;;;;64.28;49.33;;;20.60;55.30;;;;;;4956147;28;86857;-76
2021/12/01 08:11:38;;;;;;;65.97;49.55;;;20.50;55.30;;;;;;4947641;28;86392;-76
2021/12/01 08:14:06;;;;;;;64.43;49.50;;;20.50;55.40;;;;;;4936354;28;86720;-76
2021/12/01 08:16:32;;;;;;;65.13;49.45;;;20.50;55.40;;;;;;4938297;28;86792;-76
2021/12/01 08:18:58;;;;;;;63.67;49.28;;;20.40;55.30;;;;;;4939636;28;88110;-75
2021/12/01 08:21:24;;;;;;;63.85;49.53;;;20.50;55.50;;;;;;4941979;28;89685;-76
2021/12/01 08:23:51;;;;;;;63.45;49.55;;;20.50;55.40;;;;;;4949047;28;86330;-76
2021/12/01 08:26:17;;;;;;;64.22;49.33;;;20.50;55.30;;;;;;4950468;28;89380;-76
2021/12/01 08:28:45;;;;;;;63.40;49.33;;;20.50;55.50;;;;;;4943189;28;88398;-76
2021/12/01 08:31:18;;;;;;;63.25;49.25;;;20.40;55.50;;;;;;4945081;28;88514;-76
2021/12/01 08:33:45;;;;;;;64.03;49.40;;;20.40;55.30;;;;;;4958832;28;85651;-76
2021/12/01 08:36:12;;;;;;;63.45;49.30;;;20.50;55.10;;;;;;4943968;28;86998;-77
2021/12/01 08:38:38;;;;;;;63.80;49.17;;;20.50;55.60;;;;;;4952707;28;87233;-77
2021/12/01 08:41:06;;;;;;;63.03;49.25;;;20.50;55.00;;;;;;4936376;28;88148;-76
2021/12/01 08:43:33;;;;;;;63.85;49.45;;;20.40;55.00;;;;;;4946749;28;86861;-76
2021/12/01 08:45:59;;;;;;;65.50;49.55;;;20.40;55.10;;;;;;4943121;28;86875;-75
2021/12/01 08:48:25;;;;;;;63.42;49.42;;;20.30;55.30;;;;;;4955103;28;87695;-76
2021/12/01 08:50:51;;;;;;;64.07;49.28;;;20.30;55.30;;;;;;4938106;28;86066;-76
2021/12/01 08:53:17;;;;;;;64.22;49.45;;;20.40;55.30;;;;;;4941433;28;87905;-76
2021/12/01 08:55:43;;;;;;;63.05;49.20;;;20.40;55.30;;;;;;4949023;28;88084;-76
2021/12/01 08:58:11;;;;;;;65.05;49.45;;;20.30;55.40;;;;;;4955914;28;89749;-76
2021/12/01 09:00:44;;;;;;;63.90;49.40;;;20.30;55.40;;;;;;4949391;28;86553;-76
2021/12/01 09:03:10;;;;;;;64.32;49.45;;;20.40;55.40;;;;;;4957880;28;86473;-76
2021/12/01 09:05:36;;;;;;;65.43;49.47;;;20.40;55.20;;;;;;4930394;28;87024;-76
2021/12/01 09:08:02;;;;;;;65.80;49.65;;;20.50;55.10;;;;;;4947342;28;89323;-77
2021/12/01 09:10:28;;;;;;;69.60;49.65;;;20.50;55.00;;;;;;4947080;28;87397;-77
2021/12/01 09:12:53;;;;;;;66.20;49.55;;;20.40;55.30;;;;;;4954897;28;86945;-77
2021/12/01 09:15:19;;;;;;;67.03;49.60;;;20.40;55.00;;;;;;4946107;28;89427;-77
2021/12/01 09:17:45;;;;;;;66.40;49.58;;;20.30;55.40;;;;;;4950850;28;86210;-77
2021/12/01 09:20:12;;;;;;;64.35;49.50;;;20.30;55.10;;;;;;4943774;28;87972;-77
2021/12/01 09:22:37;;;;;;;64.60;49.58;;;20.30;55.20;;;;;;4951002;28;87383;-78
2021/12/01 09:25:03;;;;;;;67.93;49.53;;;20.20;55.20;;;;;;4944313;28;93259;-77
2021/12/01 09:27:29;;;;;;;64.05;49.65;;;20.20;55.20;;;;;;4954357;28;87745;-77
2021/12/01 09:29:55;;;;;;;64.55;49.65;;;20.20;55.30;;;;;;4957107;28;85890;-77
2021/12/01 09:32:21;;;;;;;66.18;49.58;;;20.20;55.40;;;;;;4961752;28;86397;-78
2021/12/01 09:34:46;;;;;;;64.05;49.47;;;20.20;55.60;;;;;;4959285;28;89301;-77
2021/12/01 09:37:13;;;;;;;66.95;49.65;;;20.20;55.60;;;;;;4957266;28;89296;-77
2021/12/01 09:39:39;;;;;;;64.05;49.35;;;20.20;55.50;;;;;;4957974;28;90629;-77
2021/12/01 09:42:04;;;;;;;63.40;49.33;;;20.10;55.50;;;;;;4947065;28;86725;-77
2021/12/01 09:44:31;;;;;;;64.85;49.28;;;20.00;55.40;;;;;;4962184;28;86785;-77
2021/12/01 09:46:58;;;;;;;66.57;49.85;;;20.00;55.50;;;;;;4955040;28;88997;-77
2021/12/01 09:49:23;;;;;;;63.78;49.35;;;20.10;55.50;;;;;;4946542;28;87554;-77
2021/12/01 09:51:49;;;;;;;65.60;49.45;;;20.10;55.30;;;;;;4961041;28;86107;-78
2021/12/01 09:54:15;;;;;;;63.97;49.40;;;20.10;55.80;;;;;;4954359;28;87590;-77
2021/12/01 09:56:40;;;;;;;66.25;49.55;;;20.10;56.10;;;;;;4963425;28;86669;-77
2021/12/01 09:59:07;;;;;;;63.40;49.40;;;20.10;55.60;;;;;;4947244;28;87035;-77
2021/12/01 10:01:33;;;;;;;63.13;49.50;;;20.10;55.50;;;;;;4940315;28;88268;-76
2021/12/01 10:03:59;;;;;;;65.72;49.25;;;20.10;55.80;;;;;;4950084;28;88787;-77
2021/12/01 10:06:26;;;;;;;64.00;49.60;;;20.00;55.90;;;;;;4943662;28;86477;-78
2021/12/01 10:08:57;;;;;;;65.18;49.55;;;20.10;56.00;;;;;;4941106;28;86789;-77
2021/12/01 10:11:27;;;;;;;63.92;49.45;;;20.10;55.70;;;;;;4953009;28;87447;-77
2021/12/01 10:13:57;;;;;;;64.13;49.70;;;20.10;55.50;;;;;;4952160;28;85794;-77
2021/12/01 10:16:25;;;;;;;65.10;49.42;;;20.10;55.80;;;;;;4935350;28;86326;-77
2021/12/01 10:18:53;;;;;;;63.88;49.30;;;20.10;55.90;;;;;;4939212;28;87211;-77
2021/12/01 10:21:28;;;;;;;63.55;49.53;;;20.20;55.40;;;;;;4943072;28;88652;-78
2021/12/01 10:24:05;;;;;;;64.10;49.45;;;20.20;55.20;;;;;;4938812;28;89152;-77
2021/12/01 10:26:33;;;;;;;64.88;49.75;;;20.10;55.20;;;;;;4953444;28;85621;-78
2021/12/01 10:29:05;;;;;;;66.57;49.80;;;20.10;55.10;;;;;;4943694;28;87552;-77
2021/12/01 10:31:43;;;;;;;;;;;20.10;55.60;;;;;;4947562;28;87795;-77
2021/12/01 10:34:36;;;;;;;65.40;49.65;;;20.10;55.50;;;;;;4945023;28;86566;-78
2021/12/01 10:37:30;;;;;;;65.43;49.63;;;20.10;55.30;;;;;;4946949;28;86677;-77
2021/12/01 10:40:18;;;;;;;64.28;49.50;;;20.10;55.30;;;;;;4958574;28;85783;-78
2021/12/01 10:43:00;;;;;;;67.72;49.95;;;20.20;55.30;;;;;;4951907;28;86066;-77
2021/12/01 10:45:47;;;;;;;65.90;49.75;;;20.10;55.20;;;;;;4956213;28;85675;-75
2021/12/01 10:48:24;;;;;;;70.22;49.88;;;20.10;55.30;;;;;;4929681;28;88437;-78
2021/12/01 10:50:51;;;;;;;68.38;50.05;;;20.20;55.50;;;;;;4950116;28;85735;-78
2021/12/01 10:53:19;;;;;;;68.90;49.88;;;20.10;55.40;;;;;;4955248;28;89206;-78
2021/12/01 10:55:52;;;;;;;66.97;49.85;;;20.20;54.80;;;;;;4951535;28;87225;-78
2021/12/01 10:58:19;;;;;;;73.78;50.20;;;20.30;54.80;;;;;;4956378;28;85706;-77
2021/12/01 11:00:47;;;;;;;66.97;50.00;;;20.30;54.80;;;;;;4950085;28;87699;-78
2021/12/01 11:03:16;;;;;;;64.78;49.83;;;20.30;55.10;;;;;;4940713;28;86901;-78
2021/12/01 11:05:50;;;;;;;66.28;49.72;;;20.20;54.90;;;;;;4959843;28;87792;-77
2021/12/01 11:08:25;;;;;;;64.57;49.53;;;20.10;54.90;;;;;;4959735;28;86572;-77
2021/12/01 11:11:03;;;;;;;69.60;50.15;;;20.20;55.30;;;;;;4955963;28;86570;-78
2021/12/01 11:13:29;;;;;;;64.05;49.55;;;20.10;55.30;;;;;;4944062;28;86501;-78
2021/12/01 11:16:01;;;;;;;66.35;49.85;;;20.20;55.00;;;;;;4951289;28;86966;-77
2021/12/01 11:18:32;;;;;;;66.00;49.72;;;20.10;55.00;;;;;;4965980;28;92863;-77
2021/12/01 11:20:59;;;;;;;;;;;20.10;55.30;;;;;;4960354;28;87052;-78
2021/12/01 11:23:32;;;;;;;66.03;49.45;;;20.10;55.10;;;;;;4943238;28;84964;-78
2021/12/01 11:26:09;;;;;;;66.05;49.92;;;20.10;55.10;;;;;;4939722;28;87061;-78
2021/12/01 11:28:42;;;;;;;64.20;49.55;;;20.10;55.40;;;;;;4952139;28;90691;-78
2021/12/01 11:31:14;;;;;;;67.03;49.88;;;20.10;55.00;;;;;;4953582;28;88351;-78
2021/12/01 11:33:44;;;;;;;64.78;49.38;;;20.10;55.20;;;;;;4946577;28;87263;-77
2021/12/01 11:36:12;;;;;;;64.10;49.55;;;20.10;55.40;;;;;;4955917;28;87090;-77
2021/12/01 11:38:39;;;;;;;66.65;49.65;;;20.10;55.50;;;;;;4965407;28;87019;-77
2021/12/01 11:41:07;;;;;;;64.55;49.53;;;20.10;55.30;;;;;;4957174;28;86626;-77
2021/12/01 11:43:34;;;;;;;64.07;49.65;;;20.10;55.10;;;;;;4953382;28;86590;-78
2021/12/01 11:46:01;;;;;;;64.47;49.83;;;20.10;55.60;;;;;;4963671;28;85499;-78
2021/12/01 11:48:31;;;;;;;65.88;49.95;;;20.10;55.50;;;;;;4958449;28;86150;-78
2021/12/01 11:51:01;;;;;;;64.80;49.55;;;20.00;55.40;;;;;;4960868;28;86759;-77
2021/12/01 11:53:36;;;;;;;66.93;49.77;;;20.00;55.60;;;;;;4941291;28;86474;-78
2021/12/01 11:56:04;;;;;;;64.70;49.63;;;20.10;55.50;;;;;;4938510;28;87804;-77
2021/12/01 11:58:51;;;;;;;65.65;49.83;;;20.00;55.20;;;;;;4952448;28;90723;-76
2021/12/01 12:01:20;;;;;;;65.97;50.13;;;20.10;54.90;;;;;;4949775;28;87940;-77
2021/12/01 12:03:46;;;;;;;65.60;49.85;;;20.10;55.20;;;;;;4949060;28;90484;-77
2021/12/01 12:06:18;;;;;;;66.47;49.60;;;20.10;54.80;;;;;;4947158;28;88228;-77
2021/12/01 12:08:58;;;;;;;67.22;49.92;;;20.10;54.50;;;;;;4942618;28;88774;-77
2021/12/01 12:11:51;;;;;;;68.57;49.88;;;20.10;54.40;;;;;;4941688;28;87882;-76
2021/12/01 12:14:17;;;;;;;66.72;49.72;;;20.20;54.70;;;;;;4945452;28;88546;-77
2021/12/01 12:17:00;;;;;;;66.20;49.95;;;20.20;54.90;;;;;;4940142;28;86462;-77
2021/12/01 12:19:51;;;;;;;66.03;50.05;;;20.20;54.50;;;;;;4955339;28;87739;-77
2021/12/01 12:22:29;;;;;;;70.37;50.13;;;20.20;54.70;;;;;;4951754;28;86934;-77
2021/12/01 12:24:56;;;;;;;69.32;49.88;;;20.20;54.80;;;;;;4951497;28;86483;-77
2021/12/01 12:27:30;;;;;;;68.60;50.15;;;20.10;54.00;;;;;;4948350;28;85975;-77
2021/12/01 12:29:58;;;;;;;66.45;49.75;;;20.10;54.60;;;;;;4957651;28;88535;-77
2021/12/01 12:32:29;;;;;;;65.78;49.50;;;20.00;54.80;;;;;;4959309;28;88987;-77
2021/12/01 12:35:01;;;;;;;64.57;49.67;;;20.00;54.70;;;;;;4953954;28;87546;-77
2021/12/01 12:37:32;;;;;;;66.82;49.75;;;20.00;54.50;;;;;;4956009;28;87432;-77
2021/12/01 12:40:00;;;;;;;66.63;49.65;;;20.00;54.20;;;;;;4957014;28;87794;-78